createdAt,value
2023-02-27T00:01:37.315Z,-0.20
2023-02-27T00:04:24.814Z,-0.30
2023-02-27T00:07:12.196Z,-0.30
2023-02-27T00:10:00.799Z,-0.40
2023-02-27T00:12:49.040Z,-0.40
2023-02-27T00:15:38.581Z,-0.40
2023-02-27T00:18:26.596Z,-0.50
2023-02-27T00:21:14.374Z,-0.50
2023-02-27T00:24:02.568Z,-0.60
2023-02-27T00:26:51.856Z,-0.50
2023-02-27T00:29:41.233Z,-0.60
2023-02-27T00:32:29.885Z,-0.60
2023-02-27T00:35:17.238Z,-0.60
2023-02-27T00:38:05.141Z,-0.60
2023-02-27T00:40:52.873Z,-0.60
2023-02-27T00:43:42.222Z,-0.50
2023-02-27T00:46:29.817Z,-0.50
2023-02-27T00:49:17.679Z,-0.50
2023-02-27T00:52:07.086Z,-0.50
2023-02-27T00:54:54.976Z,-0.50
2023-02-27T00:57:43.018Z,-0.60
2023-02-27T01:00:32.666Z,-0.60
2023-02-27T01:03:20.777Z,-0.60
2023-02-27T01:06:08.343Z,-0.70
2023-02-27T01:08:57.293Z,-0.70
2023-02-27T01:11:45.417Z,-0.70
2023-02-27T01:14:33.066Z,-0.60
2023-02-27T01:17:22.227Z,-0.60
2023-02-27T01:20:14.230Z,-0.60
2023-02-27T01:23:02.088Z,-0.60
2023-02-27T01:25:50.520Z,-0.60
2023-02-27T01:28:38.387Z,-0.60
2023-02-27T01:31:26.612Z,-0.60
2023-02-27T01:34:17.564Z,-0.70
2023-02-27T01:37:05.420Z,-0.70
2023-02-27T01:39:53.268Z,-0.70
2023-02-27T01:42:40.788Z,-0.70
2023-02-27T01:45:33.467Z,-0.80
2023-02-27T01:48:24.177Z,-0.70
2023-02-27T01:51:19.349Z,-0.80
2023-02-27T01:54:09.751Z,-0.70
2023-02-27T01:56:58.297Z,-0.70
2023-02-27T01:59:46.163Z,-0.80
2023-02-27T02:02:40.600Z,-0.80
2023-02-27T02:05:29.408Z,-0.70
2023-02-27T02:08:21.508Z,-0.80
2023-02-27T02:11:11.178Z,-0.80
2023-02-27T02:14:02.810Z,-0.80
2023-02-27T02:17:07.384Z,-0.80
2023-02-27T02:20:19.223Z,-0.80
2023-02-27T02:23:33.428Z,-0.90
2023-02-27T02:26:33.231Z,-0.80
2023-02-27T02:29:48.554Z,-0.90
2023-02-27T02:32:48.115Z,-0.90
2023-02-27T02:36:00.053Z,-0.90
2023-02-27T02:38:58.789Z,-0.90
2023-02-27T02:41:59.852Z,-0.80
2023-02-27T02:45:05.508Z,-0.90
2023-02-27T02:48:05.160Z,-0.90
2023-02-27T02:51:00.116Z,-0.90
2023-02-27T02:53:53.552Z,-1.00
2023-02-27T02:56:46.165Z,-1.00
2023-02-27T02:59:39.481Z,-1.00
2023-02-27T03:02:30.819Z,-1.00
2023-02-27T03:05:25.464Z,-1.10
2023-02-27T03:08:17.688Z,-1.00
2023-02-27T03:11:08.628Z,-1.00
2023-02-27T03:14:01.555Z,-1.00
2023-02-27T03:16:53.582Z,-1.00
2023-02-27T03:19:46.624Z,-1.00
2023-02-27T03:22:39.394Z,-1.00
2023-02-27T03:25:29.865Z,-1.00
2023-02-27T03:28:24.897Z,-1.00
2023-02-27T03:31:27.245Z,-1.00
2023-02-27T03:34:20.820Z,-1.00
2023-02-27T03:37:15.852Z,-1.00
2023-02-27T03:40:13.289Z,-1.10
2023-02-27T03:43:10.132Z,-1.00
2023-02-27T03:46:11.644Z,-0.90
2023-02-27T03:49:00.637Z,-0.90
2023-02-27T03:51:48.602Z,-0.90
2023-02-27T03:54:41.189Z,-0.90
2023-02-27T03:57:30.973Z,-0.90
2023-02-27T04:00:21.269Z,-0.90
2023-02-27T04:03:10.625Z,-0.90
2023-02-27T04:06:18.182Z,-0.80
2023-02-27T04:09:10.176Z,-0.90
2023-02-27T04:12:16.071Z,-0.90
2023-02-27T04:15:11.153Z,-0.80
2023-02-27T04:18:12.378Z,-0.80
2023-02-27T04:21:08.152Z,-0.80
2023-02-27T04:24:05.787Z,-0.80
2023-02-27T04:26:57.939Z,-0.90
2023-02-27T04:29:56.857Z,-0.80
2023-02-27T04:32:51.730Z,-0.80
2023-02-27T04:35:45.227Z,-0.80
2023-02-27T04:38:40.710Z,-0.80
2023-02-27T04:41:32.177Z,-0.80
2023-02-27T04:44:22.060Z,-0.80
2023-02-27T04:47:13.126Z,-0.80
2023-02-27T04:50:05.751Z,-0.80
2023-02-27T04:52:58.590Z,-0.80
2023-02-27T04:55:51.732Z,-0.80
2023-02-27T04:58:46.549Z,-0.80
2023-02-27T05:01:40.011Z,-0.80
2023-02-27T05:04:28.896Z,-0.70
2023-02-27T05:07:22.046Z,-0.80
2023-02-27T05:10:16.679Z,-0.80
2023-02-27T05:13:11.549Z,-0.90
2023-02-27T05:16:04.877Z,-0.90
2023-02-27T05:18:52.331Z,-0.90
2023-02-27T05:21:47.150Z,-1.00
2023-02-27T05:24:41.166Z,-1.00
2023-02-27T05:27:37.434Z,-1.00
2023-02-27T05:30:33.317Z,-1.00
2023-02-27T05:33:27.307Z,-1.00
2023-02-27T05:36:19.811Z,-1.00
2023-02-27T05:39:10.328Z,-1.00
2023-02-27T05:42:02.266Z,-1.10
2023-02-27T05:44:59.110Z,-1.10
2023-02-27T05:47:56.675Z,-1.10
2023-02-27T05:50:45.544Z,-1.10
2023-02-27T05:53:36.733Z,-1.10
2023-02-27T05:56:28.506Z,-1.10
2023-02-27T05:59:20.745Z,-1.10
2023-02-27T06:02:08.464Z,-1.20
2023-02-27T06:04:57.920Z,-1.10
2023-02-27T06:07:45.562Z,-1.10
2023-02-27T06:10:33.405Z,-1.10
2023-02-27T06:13:20.877Z,-1.10
2023-02-27T06:16:12.920Z,-1.10
2023-02-27T06:19:04.846Z,-1.10
2023-02-27T06:21:53.730Z,-1.10
2023-02-27T06:24:41.504Z,-1.10
2023-02-27T06:27:28.830Z,-1.10
2023-02-27T06:30:17.177Z,-1.10
2023-02-27T06:33:05.666Z,-1.00
2023-02-27T06:35:54.284Z,-1.00
2023-02-27T06:38:43.337Z,-1.00
2023-02-27T06:41:30.832Z,-1.00
2023-02-27T06:44:19.621Z,-0.90
2023-02-27T06:47:07.681Z,-0.90
2023-02-27T06:49:55.362Z,-0.90
2023-02-27T06:52:43.535Z,-0.80
2023-02-27T06:55:32.501Z,-0.70
2023-02-27T06:58:20.650Z,-0.70
2023-02-27T07:01:08.421Z,-0.70
2023-02-27T07:03:56.318Z,-0.60
2023-02-27T07:07:36.130Z,-0.50
2023-02-27T07:09:56.837Z,-0.50
2023-02-27T07:12:46.089Z,-0.50
2023-02-27T07:15:33.801Z,-0.50
2023-02-27T07:18:21.401Z,-0.40
2023-02-27T07:21:08.969Z,-0.30
2023-02-27T07:23:56.573Z,-0.30
2023-02-27T07:26:44.266Z,-0.30
2023-02-27T07:29:33.450Z,-0.20
2023-02-27T07:32:21.064Z,-0.20
2023-02-27T07:35:12.094Z,-0.20
2023-02-27T07:37:59.633Z,-0.10
2023-02-27T07:40:47.585Z,-0.10
2023-02-27T07:43:35.452Z,0.00
2023-02-27T07:46:27.838Z,0.00
2023-02-27T07:49:15.813Z,0.00
2023-02-27T07:52:03.205Z,0.10
2023-02-27T07:54:50.998Z,0.10
2023-02-27T07:57:38.766Z,0.20
2023-02-27T08:00:26.861Z,0.20
2023-02-27T08:03:15.814Z,0.30
2023-02-27T08:06:03.395Z,0.30
2023-02-27T08:08:50.392Z,0.40
2023-02-27T08:11:37.445Z,0.50
2023-02-27T08:14:24.743Z,0.50
2023-02-27T08:17:12.224Z,0.60
2023-02-27T08:20:00.923Z,0.50
2023-02-27T08:22:47.814Z,0.60
2023-02-27T08:25:34.966Z,0.60
2023-02-27T08:28:22.013Z,0.70
2023-02-27T08:31:09.202Z,0.70
2023-02-27T08:34:04.535Z,0.80
2023-02-27T08:36:58.393Z,0.80
2023-02-27T08:39:45.550Z,0.90
2023-02-27T08:42:32.620Z,0.90
2023-02-27T08:45:19.603Z,0.90
2023-02-27T08:48:07.106Z,1.00
2023-02-27T08:50:57.401Z,0.90
2023-02-27T08:53:46.593Z,0.90
2023-02-27T08:56:35.151Z,1.00
2023-02-27T08:59:22.427Z,1.10
2023-02-27T09:02:10.753Z,1.10
2023-02-27T09:04:58.170Z,1.10
2023-02-27T09:07:45.576Z,1.10
2023-02-27T09:10:34.537Z,1.00
2023-02-27T09:13:23.388Z,1.10
2023-02-27T09:16:10.765Z,1.10
2023-02-27T09:18:57.556Z,1.20
2023-02-27T09:21:44.590Z,1.20
2023-02-27T09:24:32.139Z,1.20
2023-02-27T09:27:20.577Z,1.30
2023-02-27T09:30:10.648Z,1.50
2023-02-27T09:32:57.831Z,1.60
2023-02-27T09:35:44.791Z,1.60
2023-02-27T09:38:31.917Z,1.50
2023-02-27T09:41:34.204Z,1.30
2023-02-27T09:44:45.175Z,1.20
2023-02-27T09:48:13.076Z,1.10
2023-02-27T09:51:01.321Z,0.80
2023-02-27T09:53:52.581Z,0.80
2023-02-27T09:56:47.392Z,0.70
2023-02-27T09:59:43.950Z,0.80
2023-02-27T10:02:45.210Z,1.00
2023-02-27T10:05:40.178Z,1.20
2023-02-27T10:08:36.418Z,1.30
2023-02-27T10:11:31.715Z,1.30
2023-02-27T10:14:29.770Z,1.40
2023-02-27T10:17:25.812Z,1.50
2023-02-27T10:20:24.528Z,1.60
2023-02-27T10:23:17.777Z,1.70
2023-02-27T10:26:05.971Z,1.80
2023-02-27T10:28:54.005Z,1.80
2023-02-27T10:31:42.601Z,1.90
2023-02-27T10:34:36.165Z,2.00
2023-02-27T10:37:27.672Z,2.10
2023-02-27T10:40:17.957Z,1.90
2023-02-27T10:43:07.646Z,1.90
2023-02-27T10:46:01.198Z,1.80
2023-02-27T10:48:51.860Z,1.90
2023-02-27T10:51:40.598Z,1.90
2023-02-27T10:54:30.005Z,1.80
2023-02-27T10:57:27.739Z,1.70
2023-02-27T11:00:31.761Z,1.60
2023-02-27T11:03:22.215Z,1.60
2023-02-27T11:06:26.271Z,1.60
2023-02-27T11:09:25.185Z,1.60
2023-02-27T11:12:23.009Z,1.60
2023-02-27T11:15:28.947Z,1.50
2023-02-27T11:18:26.408Z,1.60
2023-02-27T11:21:21.097Z,1.60
2023-02-27T11:24:21.910Z,1.70
2023-02-27T11:27:26.831Z,1.80
2023-02-27T11:30:27.276Z,1.70
2023-02-27T11:33:20.869Z,1.60
2023-02-27T11:36:09.241Z,1.60
2023-02-27T11:38:59.906Z,1.50
2023-02-27T11:41:49.650Z,1.50
2023-02-27T11:44:51.003Z,1.40
2023-02-27T11:47:44.065Z,1.40
2023-02-27T11:50:52.252Z,1.40
2023-02-27T11:54:03.785Z,1.50
2023-02-27T11:56:56.216Z,1.60
2023-02-27T11:59:48.207Z,1.60
2023-02-27T12:02:45.410Z,1.80
2023-02-27T12:05:39.511Z,1.80
2023-02-27T12:08:33.866Z,1.90
2023-02-27T12:11:28.546Z,1.90
2023-02-27T12:14:22.848Z,1.80
2023-02-27T12:17:17.846Z,1.70
2023-02-27T12:20:20.667Z,1.70
2023-02-27T12:23:20.342Z,1.70
2023-02-27T12:26:15.790Z,1.70
2023-02-27T12:29:10.828Z,1.60
2023-02-27T12:32:03.883Z,1.50
2023-02-27T12:34:55.975Z,1.40
2023-02-27T12:37:43.964Z,1.40
2023-02-27T12:40:40.861Z,1.40
2023-02-27T12:43:38.828Z,1.50
2023-02-27T12:46:37.220Z,1.70
2023-02-27T12:49:43.450Z,1.80
2023-02-27T12:52:39.765Z,1.70
2023-02-27T12:55:30.036Z,1.60
2023-02-27T12:58:29.338Z,1.60
2023-02-27T13:01:33.193Z,1.60
2023-02-27T13:04:30.907Z,1.70
2023-02-27T13:07:26.314Z,1.70
2023-02-27T13:10:19.968Z,1.70
2023-02-27T13:13:17.985Z,1.70
2023-02-27T13:16:13.707Z,1.70
2023-02-27T13:19:06.648Z,1.80
2023-02-27T13:21:59.260Z,1.90
2023-02-27T13:24:53.046Z,1.80
2023-02-27T13:27:47.233Z,1.80
2023-02-27T13:30:39.921Z,1.80
2023-02-27T13:33:31.660Z,1.70
2023-02-27T13:36:26.468Z,1.70
2023-02-27T13:39:44.130Z,1.70
2023-02-27T13:42:53.552Z,1.70
2023-02-27T13:45:57.055Z,1.60
2023-02-27T13:48:49.644Z,1.50
2023-02-27T13:51:47.373Z,1.50
2023-02-27T13:54:42.054Z,1.50
2023-02-27T13:57:34.590Z,1.40
2023-02-27T14:00:24.527Z,1.40
2023-02-27T14:03:22.491Z,1.40
2023-02-27T14:06:13.826Z,1.50
2023-02-27T14:09:14.400Z,1.70
2023-02-27T14:12:04.931Z,1.70
2023-02-27T14:14:54.057Z,1.70
2023-02-27T14:17:49.548Z,1.80
2023-02-27T14:20:53.865Z,1.90
2023-02-27T14:23:41.599Z,1.90
2023-02-27T14:26:32.728Z,1.90
2023-02-27T14:29:26.996Z,1.80
2023-02-27T14:32:20.957Z,1.80
2023-02-27T14:35:08.995Z,1.90
2023-02-27T14:37:59.113Z,1.70
2023-02-27T14:41:08.607Z,1.60
2023-02-27T14:43:57.743Z,1.40
2023-02-27T14:46:45.700Z,1.40
2023-02-27T14:49:36.946Z,1.40
2023-02-27T14:52:26.703Z,1.40
2023-02-27T14:55:28.889Z,1.40
2023-02-27T14:58:20.049Z,1.50
2023-02-27T15:01:11.444Z,1.50
2023-02-27T15:04:00.552Z,1.50
2023-02-27T15:06:51.725Z,1.50
2023-02-27T15:09:45.055Z,1.50
2023-02-27T15:12:38.061Z,1.40
2023-02-27T15:15:25.806Z,1.40
2023-02-27T15:18:16.762Z,1.40
2023-02-27T15:21:04.368Z,1.40
2023-02-27T15:24:01.547Z,1.30
2023-02-27T15:26:52.668Z,1.30
2023-02-27T15:29:43.971Z,1.30
2023-02-27T15:32:34.639Z,1.20
2023-02-27T15:35:25.110Z,1.10
2023-02-27T15:38:25.706Z,1.10
2023-02-27T15:41:15.927Z,1.10
2023-02-27T15:44:04.915Z,1.20
2023-02-27T15:46:54.771Z,1.20
2023-02-27T15:49:43.618Z,1.20
2023-02-27T15:52:40.206Z,1.20
2023-02-27T15:55:31.681Z,1.10
2023-02-27T15:58:26.077Z,1.10
2023-02-27T16:01:20.893Z,1.10
2023-02-27T16:04:21.813Z,1.10
2023-02-27T16:07:17.982Z,1.10
2023-02-27T16:10:11.807Z,1.00
2023-02-27T16:12:59.402Z,1.00
2023-02-27T16:16:00.553Z,1.00
2023-02-27T16:18:50.213Z,1.00
2023-02-27T16:21:39.182Z,1.00
2023-02-27T16:24:32.869Z,1.00
2023-02-27T16:27:25.741Z,1.10
2023-02-27T16:30:17.877Z,1.00
2023-02-27T16:33:12.188Z,1.00
2023-02-27T16:36:19.013Z,1.00
2023-02-27T16:39:09.213Z,0.90
2023-02-27T16:41:58.946Z,0.90
2023-02-27T16:44:46.505Z,0.90
2023-02-27T16:47:34.224Z,0.90
2023-02-27T16:50:25.168Z,0.70
2023-02-27T16:53:13.039Z,0.70
2023-02-27T16:56:02.652Z,0.70
2023-02-27T16:58:50.811Z,0.60
2023-02-27T17:01:38.226Z,0.60
2023-02-27T17:04:27.367Z,0.60
2023-02-27T17:07:17.091Z,0.60
2023-02-27T17:10:05.192Z,0.60
2023-02-27T17:12:54.609Z,0.50
2023-02-27T17:15:42.182Z,0.60
2023-02-27T17:18:33.396Z,0.60
2023-02-27T17:21:21.250Z,0.50
2023-02-27T17:24:11.923Z,0.50
2023-02-27T17:27:02.176Z,0.40
2023-02-27T17:29:51.632Z,0.40
2023-02-27T17:32:39.105Z,0.40
2023-02-27T17:35:26.987Z,0.40
2023-02-27T17:38:14.798Z,0.40
2023-02-27T17:41:07.434Z,0.40
2023-02-27T17:43:56.750Z,0.40
2023-02-27T17:46:48.642Z,0.40
2023-02-27T17:49:36.181Z,0.40
2023-02-27T17:52:23.980Z,0.40
2023-02-27T17:55:13.034Z,0.40
2023-02-27T17:58:00.981Z,0.40
2023-02-27T18:00:48.199Z,0.40
2023-02-27T18:03:37.433Z,0.40
2023-02-27T18:06:26.232Z,0.30
2023-02-27T18:09:14.328Z,0.30
2023-02-27T18:12:02.341Z,0.40
2023-02-27T18:14:49.769Z,0.40
2023-02-27T18:17:39.808Z,0.30
2023-02-27T18:20:33.207Z,0.30
2023-02-27T18:23:24.298Z,0.30
2023-02-27T18:26:28.993Z,0.20
2023-02-27T18:29:19.886Z,0.10
2023-02-27T18:32:13.441Z,0.00
2023-02-27T18:35:06.207Z,-0.10
2023-02-27T18:37:59.278Z,-0.20
2023-02-27T18:40:48.616Z,-0.20
2023-02-27T18:43:41.508Z,-0.10
2023-02-27T18:46:33.438Z,-0.20
2023-02-27T18:49:24.542Z,-0.20
2023-02-27T18:52:15.197Z,-0.20
2023-02-27T18:55:11.577Z,-0.20
2023-02-27T18:58:05.178Z,-0.20
2023-02-27T19:00:59.080Z,-0.20
2023-02-27T19:03:49.576Z,-0.30
2023-02-27T19:06:43.526Z,-0.30
2023-02-27T19:09:34.976Z,-0.30
2023-02-27T19:12:27.733Z,-0.30
2023-02-27T19:15:18.390Z,-0.30
2023-02-27T19:18:08.965Z,-0.30
2023-02-27T19:21:00.041Z,-0.30
2023-02-27T19:23:52.218Z,-0.40
2023-02-27T19:26:42.701Z,-0.40
2023-02-27T19:29:34.363Z,-0.50
2023-02-27T19:32:26.887Z,-0.50
2023-02-27T19:35:19.935Z,-0.60
2023-02-27T19:38:09.548Z,-0.60
2023-02-27T19:41:02.377Z,-0.50
2023-02-27T19:43:55.833Z,-0.60
2023-02-27T19:46:52.779Z,-0.60
2023-02-27T19:49:44.525Z,-0.60
2023-02-27T19:52:40.031Z,-0.60
2023-02-27T19:55:29.685Z,-0.60
2023-02-27T19:58:20.327Z,-0.60
2023-02-27T20:01:11.232Z,-0.60
2023-02-27T20:04:05.706Z,-0.70
2023-02-27T20:06:59.321Z,-0.60
2023-02-27T20:09:51.279Z,-0.70
2023-02-27T20:12:44.400Z,-0.60
2023-02-27T20:15:34.502Z,-0.70
2023-02-27T20:18:24.953Z,-0.70
2023-02-27T20:21:18.620Z,-0.70
2023-02-27T20:24:11.429Z,-0.70
2023-02-27T20:27:01.384Z,-0.70
2023-02-27T20:29:55.651Z,-0.80
2023-02-27T20:32:47.069Z,-0.70
2023-02-27T20:35:41.717Z,-0.70
2023-02-27T20:38:34.436Z,-0.70
2023-02-27T20:41:29.627Z,-0.70
2023-02-27T20:44:19.890Z,-0.70
2023-02-27T20:47:11.786Z,-0.70
2023-02-27T20:50:02.267Z,-0.70
2023-02-27T20:53:00.198Z,-0.70
2023-02-27T20:55:52.275Z,-0.70
2023-02-27T20:58:42.477Z,-0.70
2023-02-27T21:01:35.061Z,-0.70
2023-02-27T21:04:27.400Z,-0.70
2023-02-27T21:07:21.150Z,-0.70
2023-02-27T21:10:13.207Z,-0.70
2023-02-27T21:13:06.632Z,-0.70
2023-02-27T21:15:57.062Z,-0.70
2023-02-27T21:18:51.609Z,-0.70
2023-02-27T21:21:43.094Z,-0.70
2023-02-27T21:24:36.529Z,-0.70
2023-02-27T21:27:28.985Z,-0.70
2023-02-27T21:30:22.403Z,-0.80
2023-02-27T21:33:12.583Z,-0.80
2023-02-27T21:36:03.399Z,-0.80
2023-02-27T21:38:57.273Z,-0.70
2023-02-27T21:41:48.475Z,-0.70
2023-02-27T21:44:37.955Z,-0.70
2023-02-27T21:47:31.209Z,-0.70
2023-02-27T21:50:23.415Z,-0.70
2023-02-27T21:53:12.491Z,-0.70
2023-02-27T21:56:08.532Z,-0.70
2023-02-27T21:59:01.618Z,-0.70
2023-02-27T22:01:50.991Z,-0.70
2023-02-27T22:04:40.708Z,-0.70
2023-02-27T22:07:27.945Z,-0.60
2023-02-27T22:10:16.501Z,-0.70
2023-02-27T22:13:03.764Z,-0.70
2023-02-27T22:15:51.254Z,-0.70
2023-02-27T22:18:40.592Z,-0.70
2023-02-27T22:21:29.415Z,-0.70
2023-02-27T22:24:17.994Z,-0.80
2023-02-27T22:27:06.098Z,-0.80
2023-02-27T22:29:53.526Z,-0.80
2023-02-27T22:32:42.339Z,-0.80
2023-02-27T22:35:29.599Z,-0.90
2023-02-27T22:38:18.590Z,-0.90
2023-02-27T22:41:08.757Z,-0.90
2023-02-27T22:43:56.837Z,-0.90
2023-02-27T22:46:47.177Z,-1.00
2023-02-27T22:49:35.345Z,-1.00
2023-02-27T22:52:22.594Z,-1.00
2023-02-27T22:55:12.382Z,-1.00
2023-02-27T22:58:03.211Z,-1.00
2023-02-27T23:00:50.472Z,-1.00
2023-02-27T23:03:38.423Z,-1.10
2023-02-27T23:06:29.118Z,-1.10
2023-02-27T23:09:20.618Z,-1.10
2023-02-27T23:12:09.329Z,-1.20
2023-02-27T23:14:57.773Z,-1.20
2023-02-27T23:17:56.490Z,-1.20
2023-02-27T23:20:46.020Z,-1.20
2023-02-27T23:23:33.499Z,-1.20
2023-02-27T23:26:21.652Z,-1.20
2023-02-27T23:29:11.914Z,-1.20
2023-02-27T23:31:59.248Z,-1.20
2023-02-27T23:34:49.593Z,-1.20
2023-02-27T23:37:37.772Z,-1.30
2023-02-27T23:40:26.715Z,-1.20
2023-02-27T23:43:15.549Z,-1.30
2023-02-27T23:46:10.273Z,-1.30
2023-02-27T23:48:58.545Z,-1.30
2023-02-27T23:51:46.480Z,-1.30
2023-02-27T23:54:33.891Z,-1.30
2023-02-27T23:57:21.468Z,-1.30
